This is the latest recevied weather packets stored in our database for station/object N2XP-2. If no packets are shown the sender has not sent any weather packets the latest 10 day(s).
| Time | Temp. | Humidity | Pressure | Rain* | Wind** | Luminosity | Snow |
|---|---|---|---|---|---|---|---|
| 1778097378 | 21.11° C | 76% | 1007.6 hPa | 0 mm | 1.79 m/s, 291° | - | - |
| 1778097079 | 21.11° C | 77% | 1007.6 hPa | 0 mm | 1.79 m/s, 205° | - | - |
| 1778096780 | 20.56° C | 77% | 1007.6 hPa | 0 mm | 1.79 m/s, 207° | - | - |
| 1778096546 | 20.56° C | 77% | 1007.5 hPa | 0 mm | 2.24 m/s, 186° | - | - |
| 1778096477 | 20.56° C | 77% | 1007.5 hPa | 0 mm | 2.24 m/s, 186° | - | - |
| 1778096178 | 20.56° C | 77% | 1007.7 hPa | 0 mm | 1.79 m/s, 235° | - | - |
| 1778095878 | 20.56° C | 77% | 1007.7 hPa | 0 mm | 1.79 m/s, 232° | - | - |
| 1778095826 | 20.56° C | 78% | 1008 hPa | 0 mm | 1.34 m/s, 174° | - | - |
| 1778095575 | 20.56° C | 77% | 1007.8 hPa | 0 mm | 3.13 m/s, 195° | - | - |
| 1778095276 | 20.56° C | 78% | 1007.7 hPa | 0 mm | 1.79 m/s, 239° | - | - |
| 1778094977 | 20.56° C | 79% | 1007.7 hPa | 0 mm | 1.34 m/s, 246° | - | - |
| 1778094673 | 20.56° C | 79% | 1007.8 hPa | 0 mm | 1.34 m/s, 210° | - | - |
| 1778094374 | 20.56° C | 79% | 1007.9 hPa | 0 mm | 2.24 m/s, 210° | - | - |
| 1778094075 | 20.56° C | 78% | 1008 hPa | 0 mm | 1.34 m/s, 174° | - | - |
| 1778093915 | 21.11° C | 73% | 1008 hPa | 0.25 mm | 1.79 m/s, 204° | - | - |
| 1778093772 | 20.56° C | 76% | 1008.1 hPa | 0 mm | 0.89 m/s, 243° | - | - |
| 1778093720 | 20.56° C | 75% | 1008.1 hPa | 0 mm | 1.79 m/s, 248° | - | - |
| 1778093473 | 20.56° C | 75% | 1008.1 hPa | 0 mm | 1.79 m/s, 248° | - | - |
| 1778093173 | 20.56° C | 75% | 1008 hPa | 0.25 mm | 1.79 m/s, 201° | - | - |
| 1778092870 | 20.56° C | 74% | 1007.9 hPa | 0.25 mm | 2.24 m/s, 259° | - | - |
| 1778092571 | 21.11° C | 73% | 1008 hPa | 0.25 mm | 1.79 m/s, 204° | - | - |
| 1778092001 | 21.67° C | 71% | 1008.2 hPa | 0.25 mm | 1.79 m/s, 271° | - | - |
| 1778091990 | 21.67° C | 72% | 1008.2 hPa | 0.25 mm | 1.79 m/s, 203° | - | - |
| 1778091983 | 21.67° C | 73% | 1008.3 hPa | 0.25 mm | 1.79 m/s, 180° | - | - |
| 1778091969 | 21.11° C | 71% | 1008.1 hPa | 0.25 mm | 3.58 m/s, 262° | - | - |
* Rain latest hour (hover to see other rain measurements)
** Current wind speed in m/s (hover to see current wind gust speed)